createdAt,value
2022-09-28T00:00:00.000Z,3.15
2022-09-28T00:15:00.000Z,2.6
2022-09-28T00:30:00.000Z,2.4
2022-09-28T00:45:00.000Z,2.27
2022-09-28T01:00:00.000Z,1.61
2022-09-28T01:15:00.000Z,1.67
2022-09-28T01:30:00.000Z,2.52
2022-09-28T01:45:00.000Z,2.33
2022-09-28T02:00:00.000Z,1.75
2022-09-28T02:15:00.000Z,2.93
2022-09-28T02:30:00.000Z,2.06
2022-09-28T02:45:00.000Z,1.92
2022-09-28T03:15:00.000Z,3
2022-09-28T03:15:00.000Z,1.82
2022-09-28T03:30:00.000Z,1.86
2022-09-28T03:45:00.000Z,1.41
2022-09-28T04:00:00.000Z,1.27
2022-09-28T04:30:00.000Z,1
2022-09-28T04:30:00.000Z,1.52
2022-09-28T04:45:00.000Z,2.24
2022-09-28T05:00:00.000Z,2.09
2022-09-28T05:15:00.000Z,3.31
2022-09-28T05:30:00.000Z,2.53
2022-09-28T05:45:00.000Z,1.89
2022-09-28T06:00:00.000Z,2.12
2022-09-28T06:15:00.000Z,2.31
2022-09-28T06:30:00.000Z,2.52
2022-09-28T06:45:00.000Z,3.27
2022-09-28T07:00:00.000Z,1.91
2022-09-28T07:15:00.000Z,1.86
2022-09-28T07:30:00.000Z,1.87
2022-09-28T07:45:00.000Z,2.23
2022-09-28T08:00:00.000Z,2.11
2022-09-28T08:15:00.000Z,3.19
2022-09-28T08:30:00.000Z,2.35
2022-09-28T08:45:00.000Z,4.11
2022-09-28T09:00:00.000Z,4.71
2022-09-28T09:15:00.000Z,3.94
2022-09-28T09:30:00.000Z,4.12
2022-09-28T09:45:00.000Z,3.53
2022-09-28T10:00:00.000Z,3.32
2022-09-28T10:15:00.000Z,3.42
2022-09-28T10:30:00.000Z,3.64
2022-09-28T10:45:00.000Z,4.15
2022-09-28T11:00:00.000Z,4.81
2022-09-28T11:15:00.000Z,4.89
2022-09-28T11:30:00.000Z,8.8
2022-09-28T11:45:00.000Z,6.81
2022-09-28T12:00:00.000Z,8.89
2022-09-28T12:15:00.000Z,7.68
2022-09-28T12:30:00.000Z,8.33
2022-09-28T12:45:00.000Z,7.34
2022-09-28T13:00:00.000Z,5.12
2022-09-28T13:15:00.000Z,2.44
2022-09-28T13:30:00.000Z,2.68
2022-09-28T13:45:00.000Z,3.47
2022-09-28T14:00:00.000Z,3.93
2022-09-28T14:15:00.000Z,3.08
2022-09-28T14:30:00.000Z,10.84
2022-09-28T14:45:00.000Z,5.52
2022-09-28T15:00:00.000Z,4.41
2022-09-28T15:15:00.000Z,4.95
2022-09-28T15:30:00.000Z,5.09
2022-09-28T15:45:00.000Z,6.62
2022-09-28T16:00:00.000Z,7.33
2022-09-28T16:15:00.000Z,6.11
2022-09-28T16:30:00.000Z,4.24
2022-09-28T16:45:00.000Z,4.99
2022-09-28T17:00:00.000Z,5.21
2022-09-28T17:15:00.000Z,4.82
2022-09-28T17:30:00.000Z,6.24
2022-09-28T17:45:00.000Z,7.2
2022-09-28T18:00:00.000Z,6.73
2022-09-28T18:15:00.000Z,10.49
2022-09-28T18:30:00.000Z,8.11
2022-09-28T18:45:00.000Z,7.61
2022-09-28T19:00:00.000Z,8.46
2022-09-28T19:15:00.000Z,10.35
2022-09-28T19:30:00.000Z,15.93
2022-09-28T19:45:00.000Z,7.81
2022-09-28T20:00:00.000Z,16.27
2022-09-28T20:15:00.000Z,9.28
2022-09-28T20:30:00.000Z,7.69
2022-09-28T20:45:00.000Z,7.46
2022-09-28T21:00:00.000Z,6.32
2022-09-28T21:15:00.000Z,4.62
2022-09-28T21:30:00.000Z,4.2
2022-09-28T21:45:00.000Z,3.35
2022-09-28T22:00:00.000Z,2.69
2022-09-28T22:15:00.000Z,1.92
2022-09-28T22:30:00.000Z,2.02
2022-09-28T22:45:00.000Z,1.6
2022-09-28T23:00:00.000Z,1.51
2022-09-28T23:15:00.000Z,1.36
2022-09-28T23:30:00.000Z,1.16
2022-09-28T23:45:00.000Z,1.08
